Current Weather

Heathrow

Heathrow, United Kingdom (EGLL)

Report from: Monday, February 6, 2023 4:50 AM GMT
Current time: Monday, February 6, 2023 5:22 AM GMT

Nearby weather
Weather history
Weather forecast

Temperature1.0°C (33.8°F)
Dew point0.0°C (32.0°F)
Winds 2 kts (1 m/s, 2.3 mph) East (80°)
Visibility6.2 mi. (10 km)
Clouds Sky clear
Altimeter30.83 in.Hg (1044 mB)
Relative humidity93 %
Density altitude-2,654 ft. (-809 m)
Remarks Fully automated report
No clouds detected
No significant changes expected in the next two hours
Flight conditions Visual Meteorological Conditions
Raw dataEGLL 060450Z AUTO 08002KT 9999 NCD 01/00 Q1044 NOSIG
An error has occurred. This application may no longer respond until reloaded. Reload 🗙